sensor_id;sensor_type;location;lat;lon;timestamp;P1;durP1;ratioP1;P2;durP2;ratioP2
3704;SDS011;1868;48.918;9.438;2023-07-31T00:00:57;3.43;;;1.40;;
3704;SDS011;1868;48.918;9.438;2023-07-31T00:03:26;2.60;;;1.30;;
3704;SDS011;1868;48.918;9.438;2023-07-31T00:05:54;4.67;;;1.50;;
3704;SDS011;1868;48.918;9.438;2023-07-31T00:08:23;10.50;;;2.20;;
3704;SDS011;1868;48.918;9.438;2023-07-31T00:10:54;1.60;;;1.47;;
3704;SDS011;1868;48.918;9.438;2023-07-31T00:13:22;4.00;;;1.90;;
3704;SDS011;1868;48.918;9.438;2023-07-31T00:15:52;3.53;;;1.67;;
3704;SDS011;1868;48.918;9.438;2023-07-31T00:18:21;3.30;;;2.00;;
3704;SDS011;1868;48.918;9.438;2023-07-31T00:20:49;5.13;;;1.70;;
3704;SDS011;1868;48.918;9.438;2023-07-31T00:23:18;2.13;;;1.33;;
3704;SDS011;1868;48.918;9.438;2023-07-31T00:25:47;1.80;;;1.37;;
3704;SDS011;1868;48.918;9.438;2023-07-31T00:28:16;2.20;;;1.30;;
3704;SDS011;1868;48.918;9.438;2023-07-31T00:30:45;2.57;;;2.37;;
3704;SDS011;1868;48.918;9.438;2023-07-31T00:33:13;2.30;;;1.40;;
3704;SDS011;1868;48.918;9.438;2023-07-31T00:35:42;5.60;;;1.53;;
3704;SDS011;1868;48.918;9.438;2023-07-31T00:38:10;4.83;;;1.47;;
3704;SDS011;1868;48.918;9.438;2023-07-31T00:40:38;2.57;;;1.17;;
3704;SDS011;1868;48.918;9.438;2023-07-31T00:43:07;3.37;;;1.33;;
3704;SDS011;1868;48.918;9.438;2023-07-31T00:45:38;5.77;;;1.47;;
3704;SDS011;1868;48.918;9.438;2023-07-31T00:48:07;2.43;;;1.60;;
3704;SDS011;1868;48.918;9.438;2023-07-31T00:50:36;3.07;;;1.80;;
3704;SDS011;1868;48.918;9.438;2023-07-31T00:53:05;1.57;;;1.47;;
3704;SDS011;1868;48.918;9.438;2023-07-31T00:55:34;1.53;;;1.43;;
3704;SDS011;1868;48.918;9.438;2023-07-31T00:58:03;1.40;;;1.30;;
3704;SDS011;1868;48.918;9.438;2023-07-31T01:00:32;3.30;;;1.10;;
3704;SDS011;1868;48.918;9.438;2023-07-31T01:03:02;2.23;;;1.20;;
3704;SDS011;1868;48.918;9.438;2023-07-31T01:05:33;3.70;;;1.27;;
3704;SDS011;1868;48.918;9.438;2023-07-31T01:08:15;1.83;;;1.40;;
3704;SDS011;1868;48.918;9.438;2023-07-31T01:10:54;2.70;;;1.33;;
3704;SDS011;1868;48.918;9.438;2023-07-31T01:13:30;1.50;;;1.40;;
3704;SDS011;1868;48.918;9.438;2023-07-31T01:15:59;2.93;;;1.40;;
3704;SDS011;1868;48.918;9.438;2023-07-31T01:18:30;1.80;;;1.30;;
3704;SDS011;1868;48.918;9.438;2023-07-31T01:21:01;2.17;;;1.60;;
3704;SDS011;1868;48.918;9.438;2023-07-31T01:23:54;4.00;;;1.93;;
3704;SDS011;1868;48.918;9.438;2023-07-31T01:26:49;3.90;;;1.60;;
3704;SDS011;1868;48.918;9.438;2023-07-31T01:29:28;5.73;;;1.87;;
3704;SDS011;1868;48.918;9.438;2023-07-31T01:32:05;3.70;;;1.83;;
3704;SDS011;1868;48.918;9.438;2023-07-31T01:34:36;4.30;;;2.40;;
3704;SDS011;1868;48.918;9.438;2023-07-31T01:37:06;3.27;;;1.67;;
3704;SDS011;1868;48.918;9.438;2023-07-31T01:39:35;5.80;;;1.77;;
3704;SDS011;1868;48.918;9.438;2023-07-31T01:42:08;8.60;;;2.87;;
3704;SDS011;1868;48.918;9.438;2023-07-31T01:44:36;3.73;;;1.70;;
3704;SDS011;1868;48.918;9.438;2023-07-31T01:47:05;3.53;;;1.73;;
3704;SDS011;1868;48.918;9.438;2023-07-31T01:49:34;3.53;;;1.80;;
3704;SDS011;1868;48.918;9.438;2023-07-31T01:52:03;3.30;;;1.60;;
3704;SDS011;1868;48.918;9.438;2023-07-31T01:54:33;3.70;;;1.93;;
3704;SDS011;1868;48.918;9.438;2023-07-31T01:57:03;2.30;;;1.70;;
3704;SDS011;1868;48.918;9.438;2023-07-31T01:59:35;3.03;;;1.60;;
3704;SDS011;1868;48.918;9.438;2023-07-31T02:02:04;2.83;;;1.57;;
3704;SDS011;1868;48.918;9.438;2023-07-31T02:04:33;4.80;;;1.40;;
3704;SDS011;1868;48.918;9.438;2023-07-31T02:07:02;2.90;;;2.00;;
3704;SDS011;1868;48.918;9.438;2023-07-31T02:09:32;2.97;;;1.20;;
3704;SDS011;1868;48.918;9.438;2023-07-31T02:12:00;1.90;;;1.43;;
3704;SDS011;1868;48.918;9.438;2023-07-31T02:14:29;2.47;;;1.70;;
3704;SDS011;1868;48.918;9.438;2023-07-31T02:16:59;5.30;;;1.43;;
3704;SDS011;1868;48.918;9.438;2023-07-31T02:19:30;5.43;;;2.30;;
3704;SDS011;1868;48.918;9.438;2023-07-31T02:22:01;2.10;;;1.70;;
3704;SDS011;1868;48.918;9.438;2023-07-31T02:24:32;2.37;;;1.40;;
3704;SDS011;1868;48.918;9.438;2023-07-31T02:27:01;2.20;;;1.63;;
3704;SDS011;1868;48.918;9.438;2023-07-31T02:29:29;3.90;;;1.80;;
3704;SDS011;1868;48.918;9.438;2023-07-31T02:32:00;1.50;;;1.40;;
3704;SDS011;1868;48.918;9.438;2023-07-31T02:34:28;8.43;;;1.70;;
3704;SDS011;1868;48.918;9.438;2023-07-31T02:36:57;1.40;;;1.30;;
3704;SDS011;1868;48.918;9.438;2023-07-31T02:39:25;5.70;;;2.33;;
3704;SDS011;1868;48.918;9.438;2023-07-31T02:41:54;4.70;;;1.93;;
3704;SDS011;1868;48.918;9.438;2023-07-31T02:44:22;4.60;;;1.40;;
3704;SDS011;1868;48.918;9.438;2023-07-31T02:46:51;2.30;;;1.80;;
3704;SDS011;1868;48.918;9.438;2023-07-31T02:49:22;3.60;;;1.37;;
3704;SDS011;1868;48.918;9.438;2023-07-31T02:51:51;2.67;;;1.70;;
3704;SDS011;1868;48.918;9.438;2023-07-31T02:54:20;2.10;;;1.30;;
3704;SDS011;1868;48.918;9.438;2023-07-31T02:56:49;5.40;;;2.30;;
3704;SDS011;1868;48.918;9.438;2023-07-31T02:59:17;5.93;;;1.50;;
3704;SDS011;1868;48.918;9.438;2023-07-31T03:01:47;2.73;;;1.43;;
3704;SDS011;1868;48.918;9.438;2023-07-31T03:04:17;2.17;;;1.30;;
3704;SDS011;1868;48.918;9.438;2023-07-31T03:06:47;4.63;;;1.20;;
3704;SDS011;1868;48.918;9.438;2023-07-31T03:09:16;4.17;;;2.10;;
3704;SDS011;1868;48.918;9.438;2023-07-31T03:11:44;1.63;;;1.30;;
3704;SDS011;1868;48.918;9.438;2023-07-31T03:14:13;4.30;;;1.40;;
3704;SDS011;1868;48.918;9.438;2023-07-31T03:16:43;2.30;;;1.20;;
3704;SDS011;1868;48.918;9.438;2023-07-31T03:19:12;7.00;;;1.97;;
3704;SDS011;1868;48.918;9.438;2023-07-31T03:21:41;4.43;;;1.70;;
3704;SDS011;1868;48.918;9.438;2023-07-31T03:24:11;6.30;;;1.30;;
3704;SDS011;1868;48.918;9.438;2023-07-31T03:26:40;2.57;;;1.50;;
3704;SDS011;1868;48.918;9.438;2023-07-31T03:29:08;2.23;;;1.80;;
3704;SDS011;1868;48.918;9.438;2023-07-31T03:31:39;3.83;;;1.80;;
3704;SDS011;1868;48.918;9.438;2023-07-31T03:34:08;2.03;;;1.23;;
3704;SDS011;1868;48.918;9.438;2023-07-31T03:36:38;3.40;;;1.43;;
3704;SDS011;1868;48.918;9.438;2023-07-31T03:39:11;4.90;;;1.90;;
3704;SDS011;1868;48.918;9.438;2023-07-31T03:41:40;4.17;;;1.90;;
3704;SDS011;1868;48.918;9.438;2023-07-31T03:44:09;3.70;;;1.60;;
3704;SDS011;1868;48.918;9.438;2023-07-31T03:46:37;1.60;;;1.50;;
3704;SDS011;1868;48.918;9.438;2023-07-31T03:49:07;4.57;;;1.80;;
3704;SDS011;1868;48.918;9.438;2023-07-31T03:51:36;3.90;;;1.60;;
3704;SDS011;1868;48.918;9.438;2023-07-31T03:54:05;2.30;;;1.53;;
3704;SDS011;1868;48.918;9.438;2023-07-31T03:56:36;4.70;;;1.97;;
3704;SDS011;1868;48.918;9.438;2023-07-31T03:59:06;2.67;;;1.50;;
3704;SDS011;1868;48.918;9.438;2023-07-31T04:01:34;3.87;;;1.77;;
3704;SDS011;1868;48.918;9.438;2023-07-31T04:04:04;5.43;;;2.30;;
3704;SDS011;1868;48.918;9.438;2023-07-31T04:06:33;1.80;;;1.20;;
3704;SDS011;1868;48.918;9.438;2023-07-31T04:09:02;4.80;;;1.50;;
3704;SDS011;1868;48.918;9.438;2023-07-31T04:11:30;3.80;;;1.60;;
3704;SDS011;1868;48.918;9.438;2023-07-31T04:14:01;9.70;;;2.00;;
3704;SDS011;1868;48.918;9.438;2023-07-31T04:16:29;2.77;;;1.87;;
3704;SDS011;1868;48.918;9.438;2023-07-31T04:18:58;6.20;;;2.10;;
3704;SDS011;1868;48.918;9.438;2023-07-31T04:21:26;6.60;;;2.30;;
3704;SDS011;1868;48.918;9.438;2023-07-31T04:23:55;4.83;;;1.87;;
3704;SDS011;1868;48.918;9.438;2023-07-31T04:26:24;2.00;;;1.63;;
3704;SDS011;1868;48.918;9.438;2023-07-31T04:28:55;3.60;;;1.80;;
3704;SDS011;1868;48.918;9.438;2023-07-31T04:31:27;4.27;;;1.70;;
3704;SDS011;1868;48.918;9.438;2023-07-31T04:33:56;4.20;;;1.43;;
3704;SDS011;1868;48.918;9.438;2023-07-31T04:36:25;3.73;;;1.97;;
3704;SDS011;1868;48.918;9.438;2023-07-31T04:38:55;1.87;;;1.40;;
3704;SDS011;1868;48.918;9.438;2023-07-31T04:41:24;3.40;;;1.70;;
3704;SDS011;1868;48.918;9.438;2023-07-31T04:43:52;8.50;;;1.57;;
3704;SDS011;1868;48.918;9.438;2023-07-31T04:46:21;4.70;;;1.83;;
3704;SDS011;1868;48.918;9.438;2023-07-31T04:48:51;6.67;;;1.90;;
3704;SDS011;1868;48.918;9.438;2023-07-31T04:51:20;2.40;;;1.50;;
3704;SDS011;1868;48.918;9.438;2023-07-31T04:53:49;2.33;;;1.47;;
3704;SDS011;1868;48.918;9.438;2023-07-31T04:56:17;6.27;;;2.20;;
3704;SDS011;1868;48.918;9.438;2023-07-31T04:58:48;4.07;;;1.70;;
3704;SDS011;1868;48.918;9.438;2023-07-31T05:01:16;2.07;;;1.87;;
3704;SDS011;1868;48.918;9.438;2023-07-31T05:03:45;1.47;;;1.30;;
3704;SDS011;1868;48.918;9.438;2023-07-31T05:06:16;6.63;;;1.50;;
3704;SDS011;1868;48.918;9.438;2023-07-31T05:08:44;3.23;;;2.20;;
3704;SDS011;1868;48.918;9.438;2023-07-31T05:11:13;2.93;;;1.63;;
3704;SDS011;1868;48.918;9.438;2023-07-31T05:13:42;2.97;;;1.50;;
3704;SDS011;1868;48.918;9.438;2023-07-31T05:16:10;2.50;;;1.40;;
3704;SDS011;1868;48.918;9.438;2023-07-31T05:18:40;2.60;;;1.53;;
3704;SDS011;1868;48.918;9.438;2023-07-31T05:21:08;2.07;;;1.43;;
3704;SDS011;1868;48.918;9.438;2023-07-31T05:23:38;6.70;;;2.07;;
3704;SDS011;1868;48.918;9.438;2023-07-31T05:26:07;3.37;;;1.40;;
3704;SDS011;1868;48.918;9.438;2023-07-31T05:28:36;1.80;;;1.20;;
3704;SDS011;1868;48.918;9.438;2023-07-31T05:31:08;3.57;;;1.97;;
3704;SDS011;1868;48.918;9.438;2023-07-31T05:33:36;5.13;;;1.73;;
3704;SDS011;1868;48.918;9.438;2023-07-31T05:36:05;3.87;;;1.40;;
3704;SDS011;1868;48.918;9.438;2023-07-31T05:38:33;6.00;;;2.33;;
3704;SDS011;1868;48.918;9.438;2023-07-31T05:41:03;4.30;;;1.63;;
3704;SDS011;1868;48.918;9.438;2023-07-31T05:43:32;2.97;;;1.80;;
3704;SDS011;1868;48.918;9.438;2023-07-31T05:46:00;3.30;;;2.20;;
3704;SDS011;1868;48.918;9.438;2023-07-31T05:51:29;2.73;;;1.83;;
3704;SDS011;1868;48.918;9.438;2023-07-31T05:53:57;1.53;;;1.43;;
3704;SDS011;1868;48.918;9.438;2023-07-31T05:56:30;3.87;;;1.80;;
3704;SDS011;1868;48.918;9.438;2023-07-31T05:59:00;5.13;;;2.10;;
3704;SDS011;1868;48.918;9.438;2023-07-31T06:01:29;6.00;;;1.93;;
3704;SDS011;1868;48.918;9.438;2023-07-31T06:03:58;1.63;;;1.50;;
3704;SDS011;1868;48.918;9.438;2023-07-31T06:06:28;3.30;;;1.83;;
3704;SDS011;1868;48.918;9.438;2023-07-31T06:09:00;6.33;;;1.90;;
3704;SDS011;1868;48.918;9.438;2023-07-31T06:11:31;3.93;;;1.57;;
3704;SDS011;1868;48.918;9.438;2023-07-31T06:14:01;5.67;;;2.60;;
3704;SDS011;1868;48.918;9.438;2023-07-31T06:16:30;7.30;;;2.13;;
3704;SDS011;1868;48.918;9.438;2023-07-31T06:19:00;2.80;;;1.50;;
3704;SDS011;1868;48.918;9.438;2023-07-31T06:21:29;5.40;;;1.90;;
3704;SDS011;1868;48.918;9.438;2023-07-31T06:23:58;4.37;;;2.20;;
3704;SDS011;1868;48.918;9.438;2023-07-31T06:26:26;4.53;;;1.77;;
3704;SDS011;1868;48.918;9.438;2023-07-31T06:28:57;3.77;;;2.03;;
3704;SDS011;1868;48.918;9.438;2023-07-31T06:31:27;2.60;;;1.70;;
3704;SDS011;1868;48.918;9.438;2023-07-31T06:33:56;4.20;;;2.03;;
3704;SDS011;1868;48.918;9.438;2023-07-31T06:36:25;4.80;;;2.00;;
3704;SDS011;1868;48.918;9.438;2023-07-31T06:38:55;9.63;;;3.03;;
3704;SDS011;1868;48.918;9.438;2023-07-31T06:41:23;1.63;;;1.53;;
3704;SDS011;1868;48.918;9.438;2023-07-31T06:43:52;2.30;;;1.60;;
3704;SDS011;1868;48.918;9.438;2023-07-31T06:46:22;6.23;;;1.73;;
3704;SDS011;1868;48.918;9.438;2023-07-31T06:48:51;2.00;;;1.80;;
3704;SDS011;1868;48.918;9.438;2023-07-31T06:51:20;6.33;;;2.27;;
3704;SDS011;1868;48.918;9.438;2023-07-31T06:53:49;4.57;;;2.37;;
3704;SDS011;1868;48.918;9.438;2023-07-31T06:56:19;7.73;;;2.57;;
3704;SDS011;1868;48.918;9.438;2023-07-31T06:58:49;4.90;;;1.97;;
3704;SDS011;1868;48.918;9.438;2023-07-31T07:01:17;4.33;;;1.97;;
3704;SDS011;1868;48.918;9.438;2023-07-31T07:03:49;2.60;;;1.50;;
3704;SDS011;1868;48.918;9.438;2023-07-31T07:06:18;3.50;;;2.17;;
3704;SDS011;1868;48.918;9.438;2023-07-31T07:08:46;2.10;;;1.70;;
3704;SDS011;1868;48.918;9.438;2023-07-31T07:11:15;2.93;;;1.80;;
3704;SDS011;1868;48.918;9.438;2023-07-31T07:13:44;2.07;;;1.80;;
3704;SDS011;1868;48.918;9.438;2023-07-31T07:16:13;5.10;;;1.90;;
3704;SDS011;1868;48.918;9.438;2023-07-31T07:18:42;3.30;;;2.00;;
3704;SDS011;1868;48.918;9.438;2023-07-31T07:21:31;4.17;;;2.00;;
3704;SDS011;1868;48.918;9.438;2023-07-31T07:24:00;3.77;;;1.90;;
3704;SDS011;1868;48.918;9.438;2023-07-31T07:26:28;5.47;;;2.27;;
3704;SDS011;1868;48.918;9.438;2023-07-31T07:28:58;4.50;;;2.27;;
3704;SDS011;1868;48.918;9.438;2023-07-31T07:31:28;4.70;;;2.30;;
3704;SDS011;1868;48.918;9.438;2023-07-31T07:33:57;3.07;;;2.00;;
3704;SDS011;1868;48.918;9.438;2023-07-31T07:36:27;3.50;;;1.77;;
3704;SDS011;1868;48.918;9.438;2023-07-31T07:39:00;5.90;;;2.37;;
3704;SDS011;1868;48.918;9.438;2023-07-31T07:41:29;6.63;;;2.40;;
3704;SDS011;1868;48.918;9.438;2023-07-31T07:43:58;6.20;;;2.17;;
3704;SDS011;1868;48.918;9.438;2023-07-31T07:46:27;4.73;;;2.10;;
3704;SDS011;1868;48.918;9.438;2023-07-31T07:48:55;3.07;;;1.97;;
3704;SDS011;1868;48.918;9.438;2023-07-31T07:51:24;10.03;;;1.97;;
3704;SDS011;1868;48.918;9.438;2023-07-31T07:53:54;2.80;;;2.10;;
3704;SDS011;1868;48.918;9.438;2023-07-31T07:56:23;4.83;;;1.90;;
3704;SDS011;1868;48.918;9.438;2023-07-31T07:58:53;5.10;;;2.70;;
3704;SDS011;1868;48.918;9.438;2023-07-31T08:01:23;5.80;;;2.80;;
3704;SDS011;1868;48.918;9.438;2023-07-31T08:03:52;6.53;;;2.33;;
3704;SDS011;1868;48.918;9.438;2023-07-31T08:06:21;6.43;;;2.77;;
3704;SDS011;1868;48.918;9.438;2023-07-31T08:08:49;3.30;;;2.00;;
3704;SDS011;1868;48.918;9.438;2023-07-31T08:11:21;5.57;;;2.60;;
3704;SDS011;1868;48.918;9.438;2023-07-31T08:13:50;7.63;;;2.57;;
3704;SDS011;1868;48.918;9.438;2023-07-31T08:16:18;9.63;;;2.63;;
3704;SDS011;1868;48.918;9.438;2023-07-31T08:18:46;5.10;;;2.50;;
3704;SDS011;1868;48.918;9.438;2023-07-31T08:21:17;5.97;;;2.60;;
3704;SDS011;1868;48.918;9.438;2023-07-31T08:23:47;5.17;;;2.47;;
3704;SDS011;1868;48.918;9.438;2023-07-31T08:26:25;4.83;;;2.60;;
3704;SDS011;1868;48.918;9.438;2023-07-31T08:28:55;4.73;;;2.50;;
3704;SDS011;1868;48.918;9.438;2023-07-31T08:31:23;6.07;;;2.50;;
3704;SDS011;1868;48.918;9.438;2023-07-31T08:33:53;5.37;;;2.43;;
3704;SDS011;1868;48.918;9.438;2023-07-31T08:36:22;4.83;;;2.43;;
3704;SDS011;1868;48.918;9.438;2023-07-31T08:39:01;6.40;;;2.80;;
3704;SDS011;1868;48.918;9.438;2023-07-31T08:41:32;8.90;;;2.87;;
3704;SDS011;1868;48.918;9.438;2023-07-31T08:44:06;7.23;;;2.33;;
3704;SDS011;1868;48.918;9.438;2023-07-31T08:46:37;6.93;;;2.30;;
3704;SDS011;1868;48.918;9.438;2023-07-31T08:49:08;5.00;;;2.30;;
3704;SDS011;1868;48.918;9.438;2023-07-31T08:51:38;4.23;;;2.33;;
3704;SDS011;1868;48.918;9.438;2023-07-31T08:54:09;4.80;;;2.53;;
3704;SDS011;1868;48.918;9.438;2023-07-31T08:56:39;6.13;;;2.60;;
3704;SDS011;1868;48.918;9.438;2023-07-31T08:59:08;4.20;;;2.50;;
3704;SDS011;1868;48.918;9.438;2023-07-31T09:01:40;6.73;;;2.57;;
3704;SDS011;1868;48.918;9.438;2023-07-31T09:04:18;5.10;;;2.20;;
3704;SDS011;1868;48.918;9.438;2023-07-31T09:06:48;3.00;;;2.00;;
3704;SDS011;1868;48.918;9.438;2023-07-31T09:09:19;3.60;;;2.43;;
3704;SDS011;1868;48.918;9.438;2023-07-31T09:11:53;5.00;;;2.00;;
3704;SDS011;1868;48.918;9.438;2023-07-31T09:14:23;2.47;;;1.80;;
3704;SDS011;1868;48.918;9.438;2023-07-31T09:16:53;7.73;;;2.60;;
3704;SDS011;1868;48.918;9.438;2023-07-31T09:19:27;7.73;;;2.30;;
3704;SDS011;1868;48.918;9.438;2023-07-31T09:21:57;4.50;;;2.33;;
3704;SDS011;1868;48.918;9.438;2023-07-31T09:24:27;5.40;;;1.90;;
3704;SDS011;1868;48.918;9.438;2023-07-31T09:26:59;6.10;;;2.80;;
3704;SDS011;1868;48.918;9.438;2023-07-31T09:29:29;9.17;;;3.57;;
3704;SDS011;1868;48.918;9.438;2023-07-31T09:31:59;7.77;;;2.80;;
3704;SDS011;1868;48.918;9.438;2023-07-31T09:34:28;4.63;;;2.10;;
3704;SDS011;1868;48.918;9.438;2023-07-31T09:37:04;7.93;;;2.77;;
3704;SDS011;1868;48.918;9.438;2023-07-31T09:39:33;4.23;;;2.70;;
3704;SDS011;1868;48.918;9.438;2023-07-31T09:42:15;5.40;;;2.37;;
3704;SDS011;1868;48.918;9.438;2023-07-31T09:44:53;7.33;;;2.67;;
3704;SDS011;1868;48.918;9.438;2023-07-31T09:47:25;4.23;;;2.30;;
3704;SDS011;1868;48.918;9.438;2023-07-31T09:49:54;5.43;;;2.23;;
3704;SDS011;1868;48.918;9.438;2023-07-31T09:52:25;6.30;;;2.63;;
3704;SDS011;1868;48.918;9.438;2023-07-31T09:54:55;5.93;;;2.40;;
3704;SDS011;1868;48.918;9.438;2023-07-31T09:57:25;6.40;;;2.30;;
3704;SDS011;1868;48.918;9.438;2023-07-31T09:59:54;12.00;;;2.93;;
3704;SDS011;1868;48.918;9.438;2023-07-31T10:02:23;6.43;;;2.60;;
3704;SDS011;1868;48.918;9.438;2023-07-31T10:04:53;6.20;;;1.87;;
3704;SDS011;1868;48.918;9.438;2023-07-31T10:07:25;3.83;;;2.00;;
3704;SDS011;1868;48.918;9.438;2023-07-31T10:10:00;7.73;;;2.57;;
3704;SDS011;1868;48.918;9.438;2023-07-31T10:12:31;6.63;;;2.43;;
3704;SDS011;1868;48.918;9.438;2023-07-31T10:15:02;4.63;;;2.23;;
3704;SDS011;1868;48.918;9.438;2023-07-31T10:17:32;2.93;;;1.97;;
3704;SDS011;1868;48.918;9.438;2023-07-31T10:20:05;4.60;;;2.33;;
3704;SDS011;1868;48.918;9.438;2023-07-31T10:22:36;4.00;;;2.17;;
3704;SDS011;1868;48.918;9.438;2023-07-31T10:25:06;4.50;;;2.10;;
3704;SDS011;1868;48.918;9.438;2023-07-31T10:27:38;4.80;;;2.00;;
3704;SDS011;1868;48.918;9.438;2023-07-31T10:30:08;4.27;;;2.80;;
3704;SDS011;1868;48.918;9.438;2023-07-31T10:32:45;12.40;;;2.80;;
3704;SDS011;1868;48.918;9.438;2023-07-31T10:35:17;6.10;;;2.67;;
3704;SDS011;1868;48.918;9.438;2023-07-31T10:37:48;10.97;;;3.50;;
3704;SDS011;1868;48.918;9.438;2023-07-31T10:40:18;3.50;;;2.27;;
3704;SDS011;1868;48.918;9.438;2023-07-31T10:42:53;3.10;;;2.30;;
3704;SDS011;1868;48.918;9.438;2023-07-31T10:45:25;3.77;;;2.30;;
3704;SDS011;1868;48.918;9.438;2023-07-31T10:48:05;6.10;;;2.13;;
3704;SDS011;1868;48.918;9.438;2023-07-31T10:50:37;3.07;;;2.50;;
3704;SDS011;1868;48.918;9.438;2023-07-31T10:53:07;6.00;;;2.27;;
3704;SDS011;1868;48.918;9.438;2023-07-31T10:55:51;6.53;;;2.47;;
3704;SDS011;1868;48.918;9.438;2023-07-31T10:58:22;5.83;;;2.83;;
3704;SDS011;1868;48.918;9.438;2023-07-31T11:00:54;6.50;;;2.70;;
3704;SDS011;1868;48.918;9.438;2023-07-31T11:03:26;3.53;;;2.80;;
3704;SDS011;1868;48.918;9.438;2023-07-31T11:06:01;5.43;;;2.60;;
3704;SDS011;1868;48.918;9.438;2023-07-31T11:08:30;7.60;;;2.50;;
3704;SDS011;1868;48.918;9.438;2023-07-31T11:11:04;3.43;;;2.20;;
3704;SDS011;1868;48.918;9.438;2023-07-31T11:13:42;4.97;;;2.17;;
3704;SDS011;1868;48.918;9.438;2023-07-31T11:16:16;6.47;;;2.67;;
3704;SDS011;1868;48.918;9.438;2023-07-31T11:18:47;4.70;;;2.23;;
3704;SDS011;1868;48.918;9.438;2023-07-31T11:21:18;7.93;;;1.93;;
3704;SDS011;1868;48.918;9.438;2023-07-31T11:23:49;7.90;;;2.70;;
3704;SDS011;1868;48.918;9.438;2023-07-31T11:26:20;5.03;;;2.07;;
3704;SDS011;1868;48.918;9.438;2023-07-31T11:28:51;4.27;;;2.50;;
3704;SDS011;1868;48.918;9.438;2023-07-31T11:31:20;3.43;;;2.20;;
3704;SDS011;1868;48.918;9.438;2023-07-31T11:33:49;4.50;;;2.43;;
3704;SDS011;1868;48.918;9.438;2023-07-31T11:36:18;4.07;;;2.13;;
3704;SDS011;1868;48.918;9.438;2023-07-31T11:38:49;4.30;;;2.80;;
3704;SDS011;1868;48.918;9.438;2023-07-31T11:41:19;4.87;;;1.90;;
3704;SDS011;1868;48.918;9.438;2023-07-31T11:43:48;5.93;;;2.50;;
3704;SDS011;1868;48.918;9.438;2023-07-31T11:46:19;3.70;;;2.30;;
3704;SDS011;1868;48.918;9.438;2023-07-31T11:48:49;3.10;;;2.43;;
3704;SDS011;1868;48.918;9.438;2023-07-31T11:51:18;4.17;;;2.43;;
3704;SDS011;1868;48.918;9.438;2023-07-31T11:53:49;3.30;;;2.43;;
3704;SDS011;1868;48.918;9.438;2023-07-31T11:56:21;4.30;;;2.30;;
3704;SDS011;1868;48.918;9.438;2023-07-31T11:58:53;3.67;;;2.70;;
3704;SDS011;1868;48.918;9.438;2023-07-31T12:01:26;6.07;;;2.33;;
3704;SDS011;1868;48.918;9.438;2023-07-31T12:03:56;5.87;;;2.90;;
3704;SDS011;1868;48.918;9.438;2023-07-31T12:06:32;6.03;;;2.63;;
3704;SDS011;1868;48.918;9.438;2023-07-31T12:09:02;4.20;;;2.17;;
3704;SDS011;1868;48.918;9.438;2023-07-31T12:11:42;3.83;;;2.53;;
3704;SDS011;1868;48.918;9.438;2023-07-31T12:14:20;4.77;;;2.77;;
3704;SDS011;1868;48.918;9.438;2023-07-31T12:16:52;3.10;;;2.57;;
3704;SDS011;1868;48.918;9.438;2023-07-31T12:19:22;5.07;;;2.47;;
3704;SDS011;1868;48.918;9.438;2023-07-31T12:21:54;6.53;;;2.83;;
3704;SDS011;1868;48.918;9.438;2023-07-31T12:24:23;10.70;;;3.03;;
3704;SDS011;1868;48.918;9.438;2023-07-31T12:26:53;5.43;;;2.50;;
3704;SDS011;1868;48.918;9.438;2023-07-31T12:29:23;5.73;;;2.70;;
3704;SDS011;1868;48.918;9.438;2023-07-31T12:34:55;9.47;;;3.33;;
3704;SDS011;1868;48.918;9.438;2023-07-31T12:37:30;4.43;;;3.03;;
3704;SDS011;1868;48.918;9.438;2023-07-31T12:40:00;3.17;;;2.87;;
3704;SDS011;1868;48.918;9.438;2023-07-31T12:42:34;5.67;;;2.73;;
3704;SDS011;1868;48.918;9.438;2023-07-31T12:45:06;6.10;;;2.30;;
3704;SDS011;1868;48.918;9.438;2023-07-31T12:47:35;4.40;;;2.63;;
3704;SDS011;1868;48.918;9.438;2023-07-31T12:50:04;4.17;;;2.63;;
3704;SDS011;1868;48.918;9.438;2023-07-31T12:52:35;6.00;;;2.63;;
3704;SDS011;1868;48.918;9.438;2023-07-31T12:55:05;3.63;;;2.27;;
3704;SDS011;1868;48.918;9.438;2023-07-31T12:57:35;4.20;;;2.83;;
3704;SDS011;1868;48.918;9.438;2023-07-31T13:00:07;5.10;;;3.10;;
3704;SDS011;1868;48.918;9.438;2023-07-31T13:02:39;5.97;;;2.43;;
3704;SDS011;1868;48.918;9.438;2023-07-31T13:05:08;4.67;;;2.50;;
3704;SDS011;1868;48.918;9.438;2023-07-31T13:07:37;6.30;;;2.70;;
3704;SDS011;1868;48.918;9.438;2023-07-31T13:10:06;3.73;;;2.50;;
3704;SDS011;1868;48.918;9.438;2023-07-31T13:12:36;7.20;;;2.73;;
3704;SDS011;1868;48.918;9.438;2023-07-31T13:15:07;4.87;;;2.23;;
3704;SDS011;1868;48.918;9.438;2023-07-31T13:17:36;7.50;;;2.53;;
3704;SDS011;1868;48.918;9.438;2023-07-31T13:20:06;4.97;;;2.23;;
3704;SDS011;1868;48.918;9.438;2023-07-31T13:22:35;4.87;;;3.03;;
3704;SDS011;1868;48.918;9.438;2023-07-31T13:25:04;5.53;;;2.90;;
3704;SDS011;1868;48.918;9.438;2023-07-31T13:27:35;4.67;;;2.97;;
3704;SDS011;1868;48.918;9.438;2023-07-31T13:30:04;3.97;;;2.43;;
3704;SDS011;1868;48.918;9.438;2023-07-31T13:32:38;7.10;;;2.33;;
3704;SDS011;1868;48.918;9.438;2023-07-31T13:35:07;8.50;;;3.10;;
3704;SDS011;1868;48.918;9.438;2023-07-31T13:37:37;4.13;;;2.63;;
3704;SDS011;1868;48.918;9.438;2023-07-31T13:40:07;3.80;;;2.33;;
3704;SDS011;1868;48.918;9.438;2023-07-31T13:42:38;2.80;;;2.30;;
3704;SDS011;1868;48.918;9.438;2023-07-31T13:45:09;5.90;;;2.73;;
3704;SDS011;1868;48.918;9.438;2023-07-31T13:47:37;5.50;;;2.83;;
3704;SDS011;1868;48.918;9.438;2023-07-31T13:50:07;4.63;;;2.80;;
3704;SDS011;1868;48.918;9.438;2023-07-31T13:52:36;3.90;;;2.47;;
3704;SDS011;1868;48.918;9.438;2023-07-31T13:55:05;5.10;;;2.37;;
3704;SDS011;1868;48.918;9.438;2023-07-31T13:57:35;5.20;;;2.40;;
3704;SDS011;1868;48.918;9.438;2023-07-31T14:00:04;3.50;;;3.20;;
3704;SDS011;1868;48.918;9.438;2023-07-31T14:02:36;7.33;;;2.90;;
3704;SDS011;1868;48.918;9.438;2023-07-31T14:05:07;3.67;;;2.40;;
3704;SDS011;1868;48.918;9.438;2023-07-31T14:07:36;3.73;;;2.43;;
3704;SDS011;1868;48.918;9.438;2023-07-31T14:10:05;3.73;;;2.90;;
3704;SDS011;1868;48.918;9.438;2023-07-31T14:12:35;4.23;;;3.03;;
3704;SDS011;1868;48.918;9.438;2023-07-31T14:15:09;4.50;;;2.13;;
3704;SDS011;1868;48.918;9.438;2023-07-31T14:17:40;4.30;;;2.60;;
3704;SDS011;1868;48.918;9.438;2023-07-31T14:20:10;2.60;;;2.40;;
3704;SDS011;1868;48.918;9.438;2023-07-31T14:22:40;6.00;;;2.90;;
3704;SDS011;1868;48.918;9.438;2023-07-31T14:25:09;3.17;;;2.53;;
3704;SDS011;1868;48.918;9.438;2023-07-31T14:27:37;4.37;;;2.50;;
3704;SDS011;1868;48.918;9.438;2023-07-31T14:30:07;2.60;;;2.37;;
3704;SDS011;1868;48.918;9.438;2023-07-31T14:32:37;3.37;;;2.70;;
3704;SDS011;1868;48.918;9.438;2023-07-31T14:35:08;5.80;;;2.43;;
3704;SDS011;1868;48.918;9.438;2023-07-31T14:37:37;3.50;;;2.50;;
3704;SDS011;1868;48.918;9.438;2023-07-31T14:40:07;6.17;;;2.97;;
3704;SDS011;1868;48.918;9.438;2023-07-31T14:42:36;5.13;;;2.80;;
3704;SDS011;1868;48.918;9.438;2023-07-31T14:45:06;3.10;;;2.30;;
3704;SDS011;1868;48.918;9.438;2023-07-31T14:47:36;8.33;;;3.03;;
3704;SDS011;1868;48.918;9.438;2023-07-31T14:50:06;4.03;;;2.80;;
3704;SDS011;1868;48.918;9.438;2023-07-31T14:52:37;3.97;;;2.47;;
3704;SDS011;1868;48.918;9.438;2023-07-31T14:55:06;5.50;;;2.90;;
3704;SDS011;1868;48.918;9.438;2023-07-31T14:57:36;9.00;;;2.30;;
3704;SDS011;1868;48.918;9.438;2023-07-31T15:00:05;5.20;;;2.97;;
3704;SDS011;1868;48.918;9.438;2023-07-31T15:02:37;3.67;;;2.70;;
3704;SDS011;1868;48.918;9.438;2023-07-31T15:05:08;4.90;;;2.30;;
3704;SDS011;1868;48.918;9.438;2023-07-31T15:07:36;4.93;;;3.00;;
3704;SDS011;1868;48.918;9.438;2023-07-31T15:10:06;4.53;;;2.80;;
3704;SDS011;1868;48.918;9.438;2023-07-31T15:12:36;6.67;;;3.10;;
3704;SDS011;1868;48.918;9.438;2023-07-31T15:15:05;3.47;;;2.87;;
3704;SDS011;1868;48.918;9.438;2023-07-31T15:17:35;3.60;;;2.43;;
3704;SDS011;1868;48.918;9.438;2023-07-31T15:20:04;3.63;;;2.93;;
3704;SDS011;1868;48.918;9.438;2023-07-31T15:22:35;2.80;;;2.27;;
3704;SDS011;1868;48.918;9.438;2023-07-31T15:25:04;6.80;;;2.47;;
3704;SDS011;1868;48.918;9.438;2023-07-31T15:27:34;4.57;;;2.40;;
3704;SDS011;1868;48.918;9.438;2023-07-31T15:30:03;4.47;;;2.53;;
3704;SDS011;1868;48.918;9.438;2023-07-31T15:32:32;5.40;;;2.57;;
3704;SDS011;1868;48.918;9.438;2023-07-31T15:35:01;3.40;;;2.50;;
3704;SDS011;1868;48.918;9.438;2023-07-31T15:37:30;5.60;;;3.53;;
3704;SDS011;1868;48.918;9.438;2023-07-31T15:40:00;5.47;;;2.77;;